createdAt,value
2022-09-28T00:00:58.934Z,1.83
2022-09-28T00:03:28.028Z,1.80
2022-09-28T00:06:03.521Z,1.60
2022-09-28T00:08:31.687Z,1.63
2022-09-28T00:10:59.871Z,1.90
2022-09-28T00:13:28.133Z,1.67
2022-09-28T00:16:03.186Z,2.30
2022-09-28T00:18:31.708Z,2.33
2022-09-28T00:21:05.645Z,2.47
2022-09-28T00:23:34.163Z,2.70
2022-09-28T00:26:05.876Z,2.77
2022-09-28T00:28:34.022Z,2.97
2022-09-28T00:31:02.312Z,3.03
2022-09-28T00:33:30.481Z,2.90
2022-09-28T00:35:58.930Z,3.00
2022-09-28T00:38:31.484Z,3.27
2022-09-28T00:40:59.747Z,3.73
2022-09-28T00:43:28.874Z,3.70
2022-09-28T00:45:59.612Z,4.00
2022-09-28T00:48:28.716Z,4.30
2022-09-28T00:50:57.023Z,5.27
2022-09-28T00:53:26.614Z,5.73
2022-09-28T00:55:56.977Z,6.37
2022-09-28T00:58:27.417Z,6.80
2022-09-28T01:00:56.926Z,6.77
2022-09-28T01:03:25.300Z,6.87
2022-09-28T01:05:54.258Z,6.60
2022-09-28T01:08:23.587Z,6.63
2022-09-28T01:10:51.894Z,6.03
2022-09-28T01:13:22.066Z,6.17
2022-09-28T01:15:53.500Z,6.07
2022-09-28T01:18:25.362Z,5.40
2022-09-28T01:20:57.047Z,6.27
2022-09-28T01:23:55.644Z,5.30
2022-09-28T01:26:36.482Z,5.60
2022-09-28T01:29:06.607Z,5.30
2022-09-28T01:31:36.245Z,5.20
2022-09-28T01:34:06.994Z,5.10
2022-09-28T01:36:38.084Z,4.87
2022-09-28T01:39:09.602Z,4.90
2022-09-28T01:41:40.556Z,4.83
2022-09-28T01:44:09.982Z,5.03
2022-09-28T01:46:39.280Z,4.40
2022-09-28T01:49:11.002Z,4.50
2022-09-28T01:51:42.327Z,4.30
2022-09-28T01:54:14.111Z,4.60
2022-09-28T01:56:45.084Z,4.60
2022-09-28T01:59:15.677Z,5.00
2022-09-28T02:01:45.947Z,5.70
2022-09-28T02:04:16.151Z,5.60
2022-09-28T02:06:47.152Z,5.80
2022-09-28T02:09:17.925Z,6.10
2022-09-28T02:11:50.611Z,6.20
2022-09-28T02:14:19.649Z,5.30
2022-09-28T02:16:48.964Z,5.80
2022-09-28T02:19:18.604Z,5.97
2022-09-28T02:21:49.792Z,5.53
2022-09-28T02:24:21.716Z,6.00
2022-09-28T02:26:51.897Z,6.33
2022-09-28T02:29:20.076Z,6.33
2022-09-28T02:31:48.344Z,6.73
2022-09-28T02:34:16.539Z,7.10
2022-09-28T02:36:45.636Z,7.80
2022-09-28T02:39:16.741Z,7.70
2022-09-28T02:41:53.871Z,7.67
2022-09-28T02:44:31.192Z,7.93
2022-09-28T02:47:01.319Z,7.93
2022-09-28T02:49:32.732Z,7.47
2022-09-28T02:52:16.656Z,7.60
2022-09-28T02:55:02.077Z,7.00
2022-09-28T02:57:37.480Z,7.20
2022-09-28T03:00:08.404Z,7.50
2022-09-28T03:02:38.548Z,6.83
2022-09-28T03:05:13.862Z,7.10
2022-09-28T03:07:43.354Z,7.33
2022-09-28T03:10:15.981Z,7.30
2022-09-28T03:12:46.303Z,6.87
2022-09-28T03:15:15.739Z,7.80
2022-09-28T03:17:43.886Z,6.67
2022-09-28T03:20:12.807Z,6.77
2022-09-28T03:22:41.252Z,5.73
2022-09-28T03:25:10.168Z,6.33
2022-09-28T03:27:38.455Z,6.60
2022-09-28T03:30:08.703Z,5.63
2022-09-28T03:32:36.995Z,6.60
2022-09-28T03:35:05.344Z,6.53
2022-09-28T03:37:33.505Z,7.13
2022-09-28T03:40:01.767Z,6.87
2022-09-28T03:42:29.963Z,7.17
2022-09-28T03:44:58.084Z,6.60
2022-09-28T03:47:27.624Z,5.93
2022-09-28T03:49:55.772Z,5.77
2022-09-28T03:52:23.876Z,5.40
2022-09-28T03:54:52.035Z,5.20
2022-09-28T03:57:20.242Z,5.20
2022-09-28T03:59:48.434Z,5.40
2022-09-28T04:02:16.612Z,5.23
2022-09-28T04:04:46.100Z,4.93
2022-09-28T04:07:14.267Z,5.00
2022-09-28T04:09:42.388Z,5.00
2022-09-28T04:12:10.547Z,4.57
2022-09-28T04:14:38.670Z,5.43
2022-09-28T04:17:07.174Z,5.97
2022-09-28T04:19:35.375Z,5.33
2022-09-28T04:22:04.883Z,5.93
2022-09-28T04:24:33.619Z,6.87
2022-09-28T04:27:15.709Z,6.67
2022-09-28T04:29:44.044Z,7.30
2022-09-28T04:32:12.841Z,8.43
2022-09-28T04:34:44.130Z,8.70
2022-09-28T04:37:14.873Z,8.23
2022-09-28T04:39:48.066Z,9.23
2022-09-28T04:42:16.795Z,9.03
2022-09-28T04:44:44.935Z,9.93
2022-09-28T04:47:13.136Z,9.90
2022-09-28T04:49:41.438Z,9.80
2022-09-28T04:52:10.453Z,10.43
2022-09-28T04:54:42.092Z,10.80
2022-09-28T04:57:10.242Z,11.40
2022-09-28T04:59:38.483Z,11.03
2022-09-28T05:02:06.729Z,11.67
2022-09-28T05:04:34.907Z,11.70
2022-09-28T05:07:03.191Z,11.60
2022-09-28T05:09:33.968Z,12.20
2022-09-28T05:12:07.237Z,11.17
2022-09-28T05:14:35.604Z,11.13
2022-09-28T05:17:04.000Z,11.07
2022-09-28T05:19:34.745Z,9.90
2022-09-28T05:22:04.405Z,10.50
2022-09-28T05:24:32.652Z,10.50
2022-09-28T05:27:00.840Z,10.40
2022-09-28T05:29:32.365Z,9.87
2022-09-28T05:32:02.143Z,9.73
2022-09-28T05:34:30.589Z,8.57
2022-09-28T05:36:58.723Z,8.70
2022-09-28T05:39:26.859Z,9.23
2022-09-28T05:41:57.766Z,10.10
2022-09-28T05:44:25.938Z,9.17
2022-09-28T05:46:55.779Z,10.10
2022-09-28T05:49:23.935Z,10.17
2022-09-28T05:51:52.079Z,10.17
2022-09-28T05:54:20.425Z,10.37
2022-09-28T05:56:48.662Z,10.23
2022-09-28T05:59:16.790Z,9.70
2022-09-28T06:01:45.059Z,9.40
2022-09-28T06:04:16.033Z,9.00
2022-09-28T06:06:44.435Z,9.23
2022-09-28T06:09:12.576Z,8.67
2022-09-28T06:11:40.750Z,7.70
2022-09-28T06:14:08.900Z,7.47
2022-09-28T06:16:41.642Z,7.47
2022-09-28T06:19:12.199Z,6.93
2022-09-28T06:21:41.712Z,6.70
2022-09-28T06:24:09.927Z,7.07
2022-09-28T06:26:38.088Z,6.87
2022-09-28T06:29:06.237Z,7.00
2022-09-28T06:31:34.428Z,6.77
2022-09-28T06:34:02.722Z,6.27
2022-09-28T06:36:31.295Z,5.20
2022-09-28T06:39:01.006Z,4.00
2022-09-28T06:41:29.199Z,3.77
2022-09-28T06:43:57.375Z,3.90
2022-09-28T06:46:25.722Z,3.20
2022-09-28T06:48:54.497Z,3.50
2022-09-28T06:51:22.695Z,3.20
2022-09-28T06:53:53.787Z,2.97
2022-09-28T06:56:23.329Z,3.40
2022-09-28T06:58:51.503Z,3.23
2022-09-28T07:01:19.718Z,2.90
2022-09-28T07:03:50.481Z,3.13
2022-09-28T07:06:23.983Z,2.87
2022-09-28T07:08:59.595Z,2.80
2022-09-28T07:11:41.680Z,3.60
2022-09-28T07:14:12.841Z,3.70
2022-09-28T07:17:09.048Z,3.43
2022-09-28T07:19:29.998Z,3.53
2022-09-28T07:22:04.734Z,3.53
2022-09-28T07:24:33.646Z,3.13
2022-09-28T07:27:05.004Z,3.50
2022-09-28T07:29:33.160Z,2.90
2022-09-28T07:32:01.300Z,2.93
2022-09-28T07:34:29.556Z,3.00
2022-09-28T07:36:58.764Z,2.70
2022-09-28T07:39:27.147Z,2.90
2022-09-28T07:41:56.770Z,2.73
2022-09-28T07:44:29.749Z,2.87
2022-09-28T07:46:57.920Z,2.53
2022-09-28T07:49:26.082Z,2.80
2022-09-28T07:51:54.288Z,2.60
2022-09-28T07:54:22.415Z,2.60
2022-09-28T07:56:50.586Z,2.77
2022-09-28T07:59:18.919Z,2.23
2022-09-28T08:01:49.459Z,2.30
2022-09-28T08:04:17.815Z,2.20
2022-09-28T08:06:45.992Z,2.30
2022-09-28T08:09:14.202Z,2.03
2022-09-28T08:11:43.835Z,1.93
2022-09-28T08:14:11.989Z,2.10
2022-09-28T08:16:40.335Z,1.97
2022-09-28T08:19:10.049Z,1.93
2022-09-28T08:21:46.380Z,1.93
2022-09-28T08:24:15.338Z,1.60
2022-09-28T08:26:43.992Z,1.70
2022-09-28T08:29:12.273Z,2.03
2022-09-28T08:31:40.452Z,1.73
2022-09-28T08:34:10.031Z,1.70
2022-09-28T08:36:38.826Z,2.17
2022-09-28T08:39:07.070Z,1.87
2022-09-28T08:41:39.895Z,2.13
2022-09-28T08:44:16.530Z,2.10
2022-09-28T08:46:47.645Z,2.20
2022-09-28T08:49:26.752Z,2.40
2022-09-28T08:51:58.004Z,2.10
2022-09-28T08:54:29.664Z,2.13
2022-09-28T08:57:01.101Z,2.10
2022-09-28T08:59:31.757Z,1.80
2022-09-28T09:02:03.421Z,2.33
2022-09-28T09:04:34.979Z,1.90
2022-09-28T09:07:13.397Z,2.47
2022-09-28T09:09:51.037Z,2.50
2022-09-28T09:12:22.102Z,2.80
2022-09-28T09:15:01.036Z,2.70
2022-09-28T09:17:34.698Z,2.57
2022-09-28T09:20:10.905Z,2.83
2022-09-28T09:22:41.008Z,2.20
2022-09-28T09:25:19.105Z,3.07
2022-09-28T09:27:53.972Z,2.70
2022-09-28T09:30:22.824Z,2.40
2022-09-28T09:32:59.998Z,2.30
2022-09-28T09:35:45.133Z,2.50
2022-09-28T09:38:20.580Z,2.07
2022-09-28T09:40:56.480Z,2.00
2022-09-28T09:43:36.103Z,2.50
2022-09-28T09:46:10.304Z,2.07
2022-09-28T09:48:41.712Z,1.90
2022-09-28T09:51:18.723Z,2.00
2022-09-28T09:53:50.495Z,2.20
2022-09-28T09:56:20.708Z,1.73
2022-09-28T09:58:52.554Z,1.90
2022-09-28T10:01:21.836Z,2.07
2022-09-28T10:03:50.353Z,1.50
2022-09-28T10:06:21.290Z,1.63
2022-09-28T10:08:50.705Z,1.50
2022-09-28T10:11:21.550Z,1.73
2022-09-28T10:13:50.146Z,1.67
2022-09-28T10:16:19.651Z,1.67
2022-09-28T10:18:49.503Z,1.80
2022-09-28T10:21:18.598Z,1.70
2022-09-28T10:23:49.856Z,1.50
2022-09-28T10:26:25.045Z,1.70
2022-09-28T10:28:55.864Z,1.80
2022-09-28T10:31:40.268Z,1.70
2022-09-28T10:34:09.123Z,1.60
2022-09-28T10:36:46.382Z,1.63
2022-09-28T10:39:27.517Z,1.50
2022-09-28T10:41:55.963Z,1.40
2022-09-28T10:44:24.613Z,1.60
2022-09-28T10:46:57.798Z,1.60
2022-09-28T10:49:26.731Z,1.70
2022-09-28T10:51:56.178Z,1.40
2022-09-28T10:54:26.647Z,1.30
2022-09-28T10:56:55.655Z,1.40
2022-09-28T10:59:42.581Z,1.40
2022-09-28T11:02:22.055Z,1.60
2022-09-28T11:04:52.781Z,1.30
2022-09-28T11:07:22.515Z,2.00
2022-09-28T11:09:52.825Z,1.57
2022-09-28T11:12:22.144Z,1.40
2022-09-28T11:14:52.745Z,1.87
2022-09-28T11:17:27.612Z,1.20
2022-09-28T11:19:56.141Z,1.60
2022-09-28T11:22:27.247Z,1.77
2022-09-28T11:25:13.966Z,1.60
2022-09-28T11:27:42.163Z,1.27
2022-09-28T11:30:23.472Z,1.37
2022-09-28T11:32:53.063Z,1.60
2022-09-28T11:35:23.725Z,1.27
2022-09-28T11:37:56.759Z,1.30
2022-09-28T11:40:30.203Z,1.60
2022-09-28T11:43:02.928Z,1.60
2022-09-28T11:45:42.172Z,1.50
2022-09-28T11:48:12.328Z,1.53
2022-09-28T11:50:47.420Z,1.60
2022-09-28T11:53:20.029Z,1.87
2022-09-28T11:55:52.087Z,1.50
2022-09-28T11:58:24.044Z,1.90
2022-09-28T12:00:53.851Z,1.60
2022-09-28T12:03:24.616Z,1.87
2022-09-28T12:05:54.175Z,2.13
2022-09-28T12:08:25.453Z,2.20
2022-09-28T12:10:56.977Z,1.77
2022-09-28T12:13:27.739Z,2.00
2022-09-28T12:16:23.443Z,1.80
2022-09-28T12:18:50.742Z,1.90
2022-09-28T12:21:40.997Z,1.73
2022-09-28T12:24:14.428Z,2.00
2022-09-28T12:26:45.748Z,2.10
2022-09-28T12:29:15.838Z,1.90
2022-09-28T12:31:49.744Z,1.97
2022-09-28T12:34:17.895Z,1.70
2022-09-28T12:36:49.721Z,1.73
2022-09-28T12:39:46.809Z,1.80
2022-09-28T12:42:29.080Z,2.00
2022-09-28T12:45:04.309Z,1.90
2022-09-28T12:47:53.933Z,1.70
2022-09-28T12:50:44.142Z,1.80
2022-09-28T12:53:23.455Z,2.07
2022-09-28T12:55:56.222Z,1.80
2022-09-28T12:58:33.046Z,1.83
2022-09-28T13:01:05.551Z,1.90
2022-09-28T13:03:45.568Z,1.87
2022-09-28T13:06:26.092Z,1.97
2022-09-28T13:09:02.321Z,1.87
2022-09-28T13:11:34.250Z,2.10
2022-09-28T13:14:12.351Z,1.90
2022-09-28T13:16:44.229Z,1.87
2022-09-28T13:19:16.835Z,1.83
2022-09-28T13:21:48.100Z,2.33
2022-09-28T13:24:32.309Z,1.70
2022-09-28T13:27:05.408Z,1.80
2022-09-28T13:29:36.500Z,2.00
2022-09-28T13:32:05.215Z,1.90
2022-09-28T13:34:35.213Z,1.90
2022-09-28T13:37:11.146Z,2.17
2022-09-28T13:39:48.709Z,2.03
2022-09-28T13:42:25.011Z,2.10
2022-09-28T13:45:00.476Z,2.20
2022-09-28T13:47:39.075Z,2.10
2022-09-28T13:50:16.363Z,2.50
2022-09-28T13:52:47.720Z,2.27
2022-09-28T13:55:31.995Z,2.60
2022-09-28T13:58:04.493Z,2.63
2022-09-28T14:00:38.012Z,1.87
2022-09-28T14:03:14.839Z,1.80
2022-09-28T14:05:47.364Z,2.00
2022-09-28T14:08:34.551Z,2.00
2022-09-28T14:11:24.573Z,1.93
2022-09-28T14:14:07.195Z,1.63
2022-09-28T14:16:37.049Z,1.87
2022-09-28T14:19:08.108Z,1.90
2022-09-28T14:21:47.790Z,2.13
2022-09-28T14:24:22.690Z,2.10
2022-09-28T14:27:08.577Z,1.87
2022-09-28T14:29:38.142Z,1.20
2022-09-28T14:32:23.153Z,1.40
2022-09-28T14:34:57.542Z,1.20
2022-09-28T14:37:45.879Z,0.83
2022-09-28T14:40:38.394Z,0.80
2022-09-28T14:43:24.795Z,0.80
2022-09-28T14:45:54.545Z,1.00
2022-09-28T14:48:44.081Z,1.10
2022-09-28T14:51:37.859Z,1.10
2022-09-28T14:54:07.167Z,0.90
2022-09-28T14:56:40.415Z,0.80
2022-09-28T14:59:11.630Z,0.70
2022-09-28T15:01:40.632Z,0.80
2022-09-28T15:04:13.493Z,0.83
2022-09-28T15:06:48.548Z,0.80
2022-09-28T15:09:28.434Z,0.70
2022-09-28T15:12:00.790Z,0.77
2022-09-28T15:14:31.700Z,0.60
2022-09-28T15:17:01.175Z,0.80
2022-09-28T15:19:34.691Z,0.60
2022-09-28T15:22:02.833Z,1.00
2022-09-28T15:24:35.185Z,0.60
2022-09-28T15:27:04.070Z,0.80
2022-09-28T15:29:33.252Z,0.70
2022-09-28T15:32:01.484Z,0.70
2022-09-28T15:34:49.925Z,1.00
2022-09-28T15:37:19.891Z,0.90
2022-09-28T15:39:48.222Z,0.90
2022-09-28T15:42:17.533Z,1.10
2022-09-28T15:45:01.314Z,0.90
2022-09-28T15:47:31.817Z,1.10
2022-09-28T15:50:02.049Z,1.00
2022-09-28T15:52:35.929Z,0.90
2022-09-28T15:55:07.098Z,1.07
2022-09-28T15:57:39.359Z,0.80
2022-09-28T16:00:09.131Z,1.03
2022-09-28T16:02:37.428Z,1.07
2022-09-28T16:05:30.508Z,1.00
2022-09-28T16:08:03.373Z,0.93
2022-09-28T16:10:34.504Z,1.00
2022-09-28T16:13:11.721Z,0.73
2022-09-28T16:15:40.774Z,1.00
2022-09-28T16:18:18.984Z,1.07
2022-09-28T16:20:49.486Z,1.30
2022-09-28T16:23:20.858Z,0.97
2022-09-28T16:25:51.635Z,1.00
2022-09-28T16:28:26.475Z,1.17
2022-09-28T16:31:01.769Z,1.20
2022-09-28T16:33:32.415Z,1.27
2022-09-28T16:36:05.139Z,1.20
2022-09-28T16:38:33.272Z,1.50
2022-09-28T16:41:02.855Z,1.27
2022-09-28T16:43:31.824Z,1.13
2022-09-28T16:46:00.970Z,1.00
2022-09-28T16:48:31.942Z,1.03
2022-09-28T16:51:00.437Z,1.07
2022-09-28T16:53:47.466Z,1.10
2022-09-28T16:56:15.620Z,1.10
2022-09-28T16:58:44.123Z,1.20
2022-09-28T17:01:13.266Z,1.20
2022-09-28T17:03:42.593Z,1.27
2022-09-28T17:06:11.671Z,1.23
2022-09-28T17:08:43.000Z,1.40
2022-09-28T17:11:18.043Z,1.20
2022-09-28T17:13:48.671Z,1.50
2022-09-28T17:16:18.315Z,1.30
2022-09-28T17:18:47.940Z,1.30
2022-09-28T17:21:18.401Z,1.40
2022-09-28T17:23:48.677Z,1.50
2022-09-28T17:26:19.336Z,1.60
2022-09-28T17:28:47.513Z,1.60
2022-09-28T17:31:16.545Z,2.23
2022-09-28T17:33:45.112Z,2.20
2022-09-28T17:36:15.436Z,3.03
2022-09-28T17:38:43.709Z,2.67
2022-09-28T17:41:19.373Z,2.30
2022-09-28T17:43:48.511Z,1.93
2022-09-28T17:46:24.285Z,2.07
2022-09-28T17:48:52.480Z,2.30
2022-09-28T17:51:22.099Z,2.27
2022-09-28T17:53:50.260Z,2.10
2022-09-28T17:56:19.736Z,2.10
2022-09-28T17:58:48.550Z,2.43
2022-09-28T18:01:16.761Z,2.27
2022-09-28T18:03:44.914Z,2.70
2022-09-28T18:06:15.121Z,2.67
2022-09-28T18:08:43.744Z,2.90
2022-09-28T18:11:11.910Z,2.93
2022-09-28T18:13:41.557Z,3.63
2022-09-28T18:16:10.034Z,3.50
2022-09-28T18:18:39.759Z,3.07
2022-09-28T18:21:08.222Z,3.30
2022-09-28T18:23:37.260Z,3.30
2022-09-28T18:26:05.659Z,2.97
2022-09-28T18:28:33.804Z,3.30
2022-09-28T18:31:08.033Z,3.13
2022-09-28T18:33:36.577Z,3.33
2022-09-28T18:36:05.708Z,3.13
2022-09-28T18:38:34.224Z,3.20
2022-09-28T18:41:08.581Z,2.80
2022-09-28T18:43:36.751Z,2.23
2022-09-28T18:46:09.939Z,2.23
2022-09-28T18:48:38.254Z,2.47
2022-09-28T18:51:09.965Z,2.37
2022-09-28T18:53:38.406Z,2.23
2022-09-28T18:56:07.856Z,2.50
2022-09-28T18:58:36.759Z,2.43
2022-09-28T19:01:28.832Z,2.87
2022-09-28T19:03:57.857Z,2.40
2022-09-28T19:06:26.023Z,2.57
2022-09-28T19:08:55.586Z,3.00
2022-09-28T19:11:24.132Z,2.90
2022-09-28T19:13:52.341Z,3.10
2022-09-28T19:16:23.148Z,3.60
2022-09-28T19:18:52.344Z,3.37
2022-09-28T19:21:20.936Z,2.97
2022-09-28T19:23:50.062Z,3.07
2022-09-28T19:26:19.161Z,3.30
2022-09-28T19:28:47.347Z,4.73
2022-09-28T19:31:15.526Z,4.27
2022-09-28T19:33:46.376Z,6.37
2022-09-28T19:36:15.824Z,5.87
2022-09-28T19:38:44.019Z,5.80
2022-09-28T19:41:12.947Z,5.90
2022-09-28T19:43:42.158Z,7.67
2022-09-28T19:46:10.729Z,7.37
2022-09-28T19:48:42.249Z,6.20
2022-09-28T19:51:12.032Z,7.87
2022-09-28T19:53:41.326Z,6.40
2022-09-28T19:56:09.466Z,5.63
2022-09-28T19:58:38.147Z,4.50
2022-09-28T20:01:07.389Z,4.57
2022-09-28T20:03:35.548Z,5.00
2022-09-28T20:06:04.252Z,9.30
2022-09-28T20:08:33.784Z,6.87
2022-09-28T20:11:02.024Z,6.10
2022-09-28T20:13:32.531Z,4.83
2022-09-28T20:16:04.726Z,3.63
2022-09-28T20:18:34.135Z,3.17
2022-09-28T20:21:03.190Z,3.37
2022-09-28T20:23:31.590Z,2.77
2022-09-28T20:26:01.105Z,2.60
2022-09-28T20:28:29.237Z,10.63
2022-09-28T20:31:02.891Z,7.40
2022-09-28T20:33:31.340Z,6.63
2022-09-28T20:36:00.069Z,5.83
2022-09-28T20:38:28.280Z,3.90
2022-09-28T20:41:00.613Z,3.17
2022-09-28T20:43:31.334Z,3.50
2022-09-28T20:45:59.908Z,3.40
2022-09-28T20:48:28.520Z,3.40
2022-09-28T20:51:00.729Z,3.10
2022-09-28T20:53:28.894Z,2.80
2022-09-28T20:56:00.689Z,2.90
2022-09-28T20:58:30.957Z,3.10
2022-09-28T21:01:07.777Z,3.07
2022-09-28T21:03:36.139Z,3.23
2022-09-28T21:06:07.602Z,3.30
2022-09-28T21:08:38.280Z,3.07
2022-09-28T21:11:06.424Z,3.70
2022-09-28T21:13:35.951Z,2.90
2022-09-28T21:16:04.637Z,3.53
2022-09-28T21:18:32.892Z,3.20
2022-09-28T21:21:01.026Z,3.27
2022-09-28T21:23:29.172Z,3.13
2022-09-28T21:26:04.409Z,3.43
2022-09-28T21:28:32.578Z,3.40
2022-09-28T21:31:03.379Z,3.37
2022-09-28T21:33:31.613Z,3.40
2022-09-28T21:36:02.685Z,3.53
2022-09-28T21:38:31.092Z,4.00
2022-09-28T21:40:59.877Z,3.67
2022-09-28T21:43:28.961Z,4.13
2022-09-28T21:45:58.164Z,4.00
2022-09-28T21:48:28.498Z,4.03
2022-09-28T21:50:57.567Z,3.43
2022-09-28T21:53:25.890Z,4.03
2022-09-28T21:55:54.207Z,3.70
2022-09-28T21:58:23.071Z,3.77
2022-09-28T22:00:58.163Z,3.70
2022-09-28T22:03:28.529Z,4.83
2022-09-28T22:05:56.683Z,4.13
2022-09-28T22:08:25.364Z,4.00
2022-09-28T22:11:00.661Z,4.10
2022-09-28T22:13:29.141Z,3.63
2022-09-28T22:15:58.782Z,3.47
2022-09-28T22:18:27.478Z,3.97
2022-09-28T22:21:03.534Z,4.00
2022-09-28T22:23:31.952Z,3.90
2022-09-28T22:26:01.085Z,3.70
2022-09-28T22:28:29.936Z,3.90
2022-09-28T22:30:58.278Z,3.90
2022-09-28T22:33:26.955Z,4.10
2022-09-28T22:35:55.224Z,3.70
2022-09-28T22:38:25.566Z,3.80
2022-09-28T22:40:54.875Z,3.80
2022-09-28T22:43:23.667Z,3.57
2022-09-28T22:45:53.308Z,4.23
2022-09-28T22:48:23.417Z,3.70
2022-09-28T22:50:52.035Z,4.10
2022-09-28T22:53:20.246Z,4.43
2022-09-28T22:55:49.758Z,4.50
2022-09-28T22:58:18.032Z,4.20
2022-09-28T23:00:46.310Z,4.60
2022-09-28T23:03:14.540Z,4.00
2022-09-28T23:05:42.820Z,4.80
2022-09-28T23:08:11.014Z,4.50
2022-09-28T23:10:39.168Z,4.60
2022-09-28T23:13:08.680Z,4.50
2022-09-28T23:15:36.829Z,4.80
2022-09-28T23:18:05.560Z,4.77
2022-09-28T23:20:33.692Z,5.10
2022-09-28T23:23:02.000Z,4.57
2022-09-28T23:25:30.396Z,5.13
2022-09-28T23:27:58.581Z,5.03
2022-09-28T23:30:28.072Z,5.00
2022-09-28T23:32:56.252Z,5.13
2022-09-28T23:35:24.495Z,5.47
2022-09-28T23:37:52.756Z,5.03
2022-09-28T23:40:21.773Z,5.40
2022-09-28T23:42:49.928Z,5.47
2022-09-28T23:45:18.134Z,6.47
2022-09-28T23:47:48.108Z,5.93
2022-09-28T23:50:16.248Z,6.50
2022-09-28T23:52:44.413Z,6.43
2022-09-28T23:55:12.551Z,6.00
2022-09-28T23:57:41.453Z,6.90
